WetterOnline ( http://www.wetteronline.de )

Wetter aktuell Giesensdorf

Aktuelles Wetter: Lübeck/Blankensee (15m)

6-stündlich | Neueste Meldungen
Ortszeit Temperatur Wetter
Di, 16.10. 8:00 8.7° C fast wolkenlos
Di, 16.10. 2:00 11.0° C wolkenlos
Mo, 15.10. 20:00 13.9° C bewölkt
Mo, 15.10. 14:00 22.3° C wolkenlos
Mo, 15.10. 8:00 11.0° C wolkenlos
Mo, 15.10. 2:00 14.0° C wolkenlos
So, 14.10. 20:00 18.8° C wolkenlos
So, 14.10. 14:00 20.8° C wolkenlos
Ortszeit Temperatur Wetter
Di, 16.10. 11:20 19° C -
Di, 16.10. 11:00 16.5° C leicht bewölkt
Di, 16.10. 10:50 16.5° C leicht bewölkt
Di, 16.10. 10:40 15.9° C leicht bewölkt
Di, 16.10. 10:30 14.7° C bewölkt
Di, 16.10. 10:20 14.7° C bewölkt
Di, 16.10. 10:00 14.1° C leicht bewölkt
Di, 16.10. 9:30 12.2° C fast wolkenlos
Di, 16.10. 9:00 9.9° C wolkenlos
Di, 16.10. 8:30 8.7° C wolkenlos
Di, 16.10. 8:00 8.7° C fast wolkenlos
Ortszeit Relative Feuchte Sichtweite
Di, 16.10. 8:00 96% 8 km
Di, 16.10. 2:00 87% 15 km
Mo, 15.10. 20:00 83% 15 km
Mo, 15.10. 14:00 44% 16 km
Mo, 15.10. 8:00 80% 12 km
Mo, 15.10. 2:00 69% 18 km
So, 14.10. 20:00 53% 19 km
So, 14.10. 14:00 50% 13 km
Ortszeit Relative Feuchte Sichtweite
Di, 16.10. 11:20 64% >10 km
Di, 16.10. 11:00 67% 12 km
Di, 16.10. 10:50 67% -
Di, 16.10. 10:40 70% -
Di, 16.10. 10:30 73% 11 km
Di, 16.10. 10:20 73% -
Di, 16.10. 10:00 72% 12 km
Di, 16.10. 9:30 78% 12 km
Di, 16.10. 9:00 90% 9 km
Di, 16.10. 8:30 95% 8 km
Di, 16.10. 8:00 96% 8 km
Ortszeit Niederschlagsmenge Niederschlagsart
Di, 16.10. 8:00 0.0 l/m2 in 12 Std. -
Di, 16.10. 2:00 0.0 l/m2 in 6 Std. -
Mo, 15.10. 20:00 0.0 l/m2 in 12 Std. -
Mo, 15.10. 14:00 0.0 l/m2 in 6 Std. -
Mo, 15.10. 8:00 0.0 l/m2 in 12 Std. -
Mo, 15.10. 2:00 0.0 l/m2 in 6 Std. -
So, 14.10. 20:00 0.0 l/m2 in 12 Std. -
So, 14.10. 14:00 0.0 l/m2 in 6 Std. -
Ortszeit Niederschlagsmenge Niederschlagsart
Di, 16.10. 11:20 keine Meldung -
Di, 16.10. 11:00 0.0 l/m2 in 1 Std. -
Di, 16.10. 10:50 keine Meldung -
Di, 16.10. 10:40 keine Meldung -
Di, 16.10. 10:30 0.0 l/m2 in 1 Std. -
Di, 16.10. 10:20 keine Meldung -
Di, 16.10. 10:00 0.0 l/m2 in 1 Std. -
Di, 16.10. 9:30 0.0 l/m2 in 1 Std. -
Di, 16.10. 9:00 0.0 l/m2 in 1 Std. -
Di, 16.10. 8:30 0.0 l/m2 in 1 Std. -
Di, 16.10. 8:00 0.0 l/m2 in 1 Std. -
Ortszeit Stärke Spitze Richtung
km/h Bft. km/h Grad Sektor
Di, 16.10. 8:00 4 1 11 200° S
Di, 16.10. 2:00 0 0 14 - -
Mo, 15.10. 20:00 7 2 22 150° SO
Mo, 15.10. 14:00 7 2 20 120° SO
Mo, 15.10. 8:00 7 2 18 150° SO
Mo, 15.10. 2:00 6 1 17 160° S
So, 14.10. 20:00 7 2 25 160° S
So, 14.10. 14:00 9 2 28 140° SO
Ortszeit Stärke Spitze Richtung
km/h Bft. km/h Grad Sektor
Di, 16.10. 11:20 6 1 - 200° S
Di, 16.10. 11:00 2 1 9 230° SW
Di, 16.10. 10:50 2 1 - 230° SW
Di, 16.10. 10:40 4 1 - 200° S
Di, 16.10. 10:30 4 1 7 230° SW
Di, 16.10. 10:20 4 1 - 230° SW
Di, 16.10. 10:00 4 1 7 240° SW
Di, 16.10. 9:30 2 1 4 250° W
Di, 16.10. 9:00 4 1 7 150° SO
Di, 16.10. 8:30 4 1 4 180° S
Di, 16.10. 8:00 4 1 7 200° S
Ortszeit Untergrenze Bedeckung Gattung
total tief tief mittel hoch
Di, 16.10. 8:00 3000 m 1/8 1/8 - - -
Di, 16.10. 2:00 - 0/8 0/8 - - -
Mo, 15.10. 20:00 3300 m 7/8 7/8 - - -
Mo, 15.10. 14:00 - 0/8 0/8 - - -
Mo, 15.10. 8:00 - 0/8 0/8 - - -
Mo, 15.10. 2:00 - 0/8 0/8 - - -
So, 14.10. 20:00 - 0/8 0/8 - - -
So, 14.10. 14:00 - 0/8 0/8 - - -
Ortszeit Bedeckungsgrad in Achtel und Wolkenuntergrenze
Di, 16.10. 11:20 keine Wolken(unter 1500 m)
Di, 16.10. 11:00 2(9000m) 3(9000m)
Di, 16.10. 10:50 2(9000m) 3(9000m)
Di, 16.10. 10:40 1(3600m) 3(9000m)
Di, 16.10. 10:30 6(3300m) 8(9000m)
Di, 16.10. 10:20 6(3300m) 8(9000m)
Di, 16.10. 10:00 1(3000m) 4(3600m) 6(9000m)
Di, 16.10. 9:30 1(9000m) 2(9000m)
Di, 16.10. 9:00 keine Wolken
Di, 16.10. 8:30 keine Wolken
Di, 16.10. 8:00 1(3000m)
Ortszeit Luftdruck NN (hPa) Tendenz (hPa in 3 Std.)
Di, 16.10. 8:00 1017 + 0,8
Di, 16.10. 2:00 1016 + 0,4
Mo, 15.10. 20:00 1015 + 1,1
Mo, 15.10. 14:00 1013 - 0,4
Mo, 15.10. 8:00 1013 + 0,6
Mo, 15.10. 2:00 1012 + 0,2
So, 14.10. 20:00 1012 + 0,5
So, 14.10. 14:00 1013 - 1,2
Ortszeit Luftdruck NN (hPa) Tendenz (hPa in 3 Std.)
Di, 16.10. 11:20 1018 keine Meldung
Di, 16.10. 11:00 1018 + 1,0
Di, 16.10. 10:50 1018 keine Meldung
Di, 16.10. 10:40 1018 keine Meldung
Di, 16.10. 10:30 1018 + 1,6
Di, 16.10. 10:20 1018 keine Meldung
Di, 16.10. 10:00 1018 + 1,6
Di, 16.10. 9:30 1018 + 1,4
Di, 16.10. 9:00 1018 + 1,2
Di, 16.10. 8:30 1018 + 0,9
Di, 16.10. 8:00 1017 + 0,8
Ortszeit Schneehöhe (cm)
Di, 16.10. 8:00 0
Di, 16.10. 2:00 0
Mo, 15.10. 20:00 0
Mo, 15.10. 14:00 0
Mo, 15.10. 8:00 0
Mo, 15.10. 2:00 0
So, 14.10. 20:00 0
So, 14.10. 14:00 0
Ortszeit Schneehöhe (cm)
Di, 16.10. 11:20 -
Di, 16.10. 11:00 0
Di, 16.10. 10:50 0
Di, 16.10. 10:40 0
Di, 16.10. 10:30 0
Di, 16.10. 10:20 0
Di, 16.10. 10:00 0
Di, 16.10. 9:30 0
Di, 16.10. 9:00 0
Di, 16.10. 8:30 0
Di, 16.10. 8:00 0
Link zu dieser Seite / Seite empfehlen

Das Wetter in ...